Time;durP1;ratioP1;P1;durP2;ratioP2;P2;SDS_P1;SDS_P2;PMS_P1;PMS_P2;Temp;Humidity;BMP_temperature;BMP_pressure;BME280_temperature;BME280_humidity;BME280_pressure;Samples;Min_cycle;Max_cycle;Signal;HPM_P1;HPM_P2
2022/03/16 00:02:03;;;;;;;28.05;24.40;;;9.20;99.90;;;;;;6110863;23;20643;-87
2022/03/16 00:04:31;;;;;;;30.05;26.88;;;9.20;99.90;;;;;;6109505;23;20194;-88
2022/03/16 00:06:57;;;;;;;29.65;26.45;;;9.20;99.90;;;;;;6112810;23;20708;-86
2022/03/16 00:09:25;;;;;;;30.38;26.85;;;9.30;99.90;;;;;;6103834;23;20223;-88
2022/03/16 00:11:52;;;;;;;30.90;27.67;;;9.30;99.90;;;;;;6117409;23;20657;-88
2022/03/16 00:14:20;;;;;;;30.00;26.85;;;9.30;99.90;;;;;;6109950;23;20195;-88
2022/03/16 00:16:47;;;;;;;29.13;25.52;;;9.40;99.90;;;;;;6105555;23;20580;-87
2022/03/16 00:19:14;;;;;;;30.08;25.83;;;9.40;99.90;;;;;;6111713;23;20191;-87
2022/03/16 00:21:41;;;;;;;31.73;27.65;;;9.40;99.90;;;;;;6097134;23;20294;-88
2022/03/16 00:24:09;;;;;;;31.67;28.20;;;9.40;99.90;;;;;;6098668;23;20247;-87
2022/03/16 00:26:36;;;;;;;32.47;28.98;;;9.50;99.90;;;;;;6110282;23;20879;-87
2022/03/16 00:29:03;;;;;;;32.67;28.63;;;9.40;99.90;;;;;;6115845;23;20309;-87
2022/03/16 00:31:32;;;;;;;31.45;27.67;;;9.50;99.90;;;;;;6113286;23;20276;-87
2022/03/16 00:33:59;;;;;;;30.98;27.77;;;9.50;99.90;;;;;;6095273;23;20681;-87
2022/03/16 00:36:26;;;;;;;31.50;27.65;;;9.50;99.90;;;;;;6106603;23;20229;-87
2022/03/16 00:38:54;;;;;;;30.30;26.88;;;9.50;99.90;;;;;;6120258;23;20276;-88
2022/03/16 00:41:20;;;;;;;30.02;26.73;;;9.50;99.90;;;;;;6102446;23;20266;-89
2022/03/16 00:43:47;;;;;;;30.42;26.85;;;9.60;99.90;;;;;;6107113;23;20188;-88
2022/03/16 00:46:14;;;;;;;31.10;27.67;;;9.60;99.90;;;;;;6109468;23;20198;-88
2022/03/16 00:48:42;;;;;;;33.75;28.92;;;9.60;99.90;;;;;;6121803;23;20215;-88
2022/03/16 00:51:10;;;;;;;31.77;28.38;;;9.60;99.90;;;;;;6104823;23;20550;-88
2022/03/16 00:53:39;;;;;;;31.63;26.90;;;9.60;99.90;;;;;;6118179;23;20551;-87
2022/03/16 00:56:08;;;;;;;32.85;29.30;;;9.70;99.90;;;;;;6105105;23;20650;-88
2022/03/16 00:58:35;;;;;;;32.67;28.42;;;9.70;99.90;;;;;;6104704;23;20207;-89
2022/03/16 01:01:02;;;;;;;31.42;27.80;;;9.60;99.90;;;;;;6098626;23;20546;-88
2022/03/16 01:03:29;;;;;;;33.30;29.38;;;9.70;99.90;;;;;;6096802;23;20249;-87
2022/03/16 01:05:57;;;;;;;33.65;28.60;;;9.60;99.90;;;;;;6101743;23;20191;-88
2022/03/16 01:08:24;;;;;;;32.25;28.75;;;9.60;99.90;;;;;;6112471;23;20212;-88
2022/03/16 01:10:51;;;;;;;32.47;28.25;;;9.60;99.90;;;;;;6100478;23;20197;-87
2022/03/16 01:13:18;;;;;;;33.30;29.17;;;9.50;99.90;;;;;;6103983;23;20291;-87
2022/03/16 01:15:46;;;;;;;33.35;29.58;;;9.50;99.90;;;;;;6097936;23;20188;-88
2022/03/16 01:18:12;;;;;;;32.17;28.67;;;9.50;99.90;;;;;;6106849;23;20295;-88
2022/03/16 01:20:39;;;;;;;32.65;28.45;;;9.50;99.90;;;;;;6111077;23;20206;-87
2022/03/16 01:23:08;;;;;;;31.27;27.92;;;9.50;99.90;;;;;;6112186;23;20194;-88
2022/03/16 01:25:34;;;;;;;32.05;27.70;;;9.50;99.90;;;;;;6114356;23;20684;-87
2022/03/16 01:28:01;;;;;;;30.02;26.77;;;9.50;99.90;;;;;;6119944;23;20209;-88
2022/03/16 01:30:28;;;;;;;32.75;27.85;;;9.50;99.90;;;;;;6114380;23;20313;-88
2022/03/16 01:32:55;;;;;;;33.17;29.30;;;9.50;99.90;;;;;;6113824;23;20277;-88
2022/03/16 01:35:22;;;;;;;34.22;28.23;;;9.50;99.90;;;;;;6109908;23;20191;-88
2022/03/16 01:37:49;;;;;;;31.98;28.40;;;9.50;99.90;;;;;;6114018;23;20211;-87
2022/03/16 01:40:17;;;;;;;36.67;30.75;;;9.60;99.90;;;;;;6107672;23;20270;-87
2022/03/16 01:42:44;;;;;;;33.92;28.83;;;9.50;99.90;;;;;;6113726;23;20282;-88
2022/03/16 01:45:11;;;;;;;32.53;28.35;;;9.50;99.90;;;;;;6106777;23;20205;-88
2022/03/16 01:47:41;;;;;;;32.65;28.23;;;9.50;99.90;;;;;;6109486;23;20245;-88
2022/03/16 01:50:08;;;;;;;32.70;29.05;;;9.50;99.90;;;;;;6111464;23;20215;-88
2022/03/16 01:52:35;;;;;;;36.40;30.55;;;9.60;99.90;;;;;;6110204;23;20191;-88
2022/03/16 01:55:05;;;;;;;33.95;30.27;;;9.60;99.90;;;;;;6108217;23;20190;-88
2022/03/16 01:57:36;;;;;;;35.78;30.15;;;9.60;99.90;;;;;;6115509;23;20262;-87
2022/03/16 02:00:06;;;;;;;34.90;29.80;;;9.50;99.90;;;;;;6108932;23;20218;-88
2022/03/16 02:02:33;;;;;;;34.28;30.10;;;9.50;99.90;;;;;;6110884;23;20226;-87
2022/03/16 02:05:00;;;;;;;36.95;30.70;;;9.50;99.90;;;;;;6101574;23;20553;-87
2022/03/16 02:07:27;;;;;;;35.10;29.75;;;9.40;99.90;;;;;;6114939;23;20218;-87
2022/03/16 02:09:55;;;;;;;35.28;30.25;;;9.50;99.90;;;;;;6119740;23;20243;-88
2022/03/16 02:12:22;;;;;;;33.47;29.20;;;9.50;99.90;;;;;;6107303;23;20192;-87
2022/03/16 02:14:50;;;;;;;33.65;28.50;;;9.50;99.90;;;;;;6109187;23;20192;-87
2022/03/16 02:17:19;;;;;;;33.90;28.13;;;9.50;99.90;;;;;;6114057;23;20324;-87
2022/03/16 02:19:46;;;;;;;37.05;31.63;;;9.50;99.90;;;;;;6110267;23;20245;-88
2022/03/16 02:22:14;;;;;;;33.75;29.90;;;9.50;99.90;;;;;;6119138;23;20258;-87
2022/03/16 02:24:43;;;;;;;34.80;29.30;;;9.50;99.90;;;;;;6100958;23;20935;-87
2022/03/16 02:27:10;;;;;;;36.35;30.85;;;9.50;99.90;;;;;;6110378;23;20667;-87
2022/03/16 02:29:37;;;;;;;37.60;32.10;;;9.50;99.90;;;;;;6107151;23;20275;-87
2022/03/16 02:32:05;;;;;;;33.55;28.42;;;9.50;99.90;;;;;;6117375;23;20279;-86
2022/03/16 02:34:32;;;;;;;38.53;31.85;;;9.50;99.90;;;;;;6099326;23;20270;-88
2022/03/16 02:36:59;;;;;;;37.55;31.77;;;9.50;99.90;;;;;;6108923;23;20217;-88
2022/03/16 02:39:25;;;;;;;36.05;30.83;;;9.50;99.90;;;;;;6101878;23;20196;-87
2022/03/16 02:41:54;;;;;;;36.67;30.77;;;9.50;99.90;;;;;;6112476;23;20730;-88
2022/03/16 02:44:21;;;;;;;35.47;30.17;;;9.50;99.90;;;;;;6106575;23;20195;-87
2022/03/16 02:46:47;;;;;;;35.50;30.38;;;9.50;99.90;;;;;;6113636;23;20237;-88
2022/03/16 02:49:14;;;;;;;39.67;31.60;;;9.50;99.90;;;;;;6117669;23;20187;-88
2022/03/16 02:51:41;;;;;;;37.72;31.90;;;9.50;99.90;;;;;;6100186;23;20242;-87
2022/03/16 02:54:10;;;;;;;34.72;30.23;;;9.50;99.90;;;;;;6113100;23;20187;-87
2022/03/16 02:56:37;;;;;;;34.55;30.70;;;9.50;99.90;;;;;;6103848;23;20284;-88
2022/03/16 02:59:05;;;;;;;38.45;31.60;;;9.50;99.90;;;;;;6120943;23;20645;-87
2022/03/16 03:01:32;;;;;;;38.58;32.80;;;9.50;99.90;;;;;;6107911;23;20281;-88
2022/03/16 03:03:59;;;;;;;39.42;31.75;;;9.50;99.90;;;;;;6107127;23;20205;-87
2022/03/16 03:06:27;;;;;;;37.70;31.58;;;9.40;99.90;;;;;;6103409;23;20227;-87
2022/03/16 03:08:54;;;;;;;35.63;31.45;;;9.50;99.90;;;;;;6100042;23;20880;-88
2022/03/16 03:11:21;;;;;;;38.00;31.48;;;9.40;99.90;;;;;;6104145;23;20237;-87
2022/03/16 03:13:48;;;;;;;38.20;32.00;;;9.40;99.90;;;;;;6096803;23;20198;-87
2022/03/16 03:16:16;;;;;;;40.25;32.38;;;9.40;99.90;;;;;;6098897;23;20208;-87
2022/03/16 03:18:43;;;;;;;38.63;32.78;;;9.40;99.90;;;;;;6104967;23;20195;-87
2022/03/16 03:21:10;;;;;;;41.83;33.10;;;9.30;99.90;;;;;;6105758;23;20188;-87
2022/03/16 03:23:38;;;;;;;39.42;33.28;;;9.30;99.90;;;;;;6096656;23;20191;-87
2022/03/16 03:26:04;;;;;;;38.33;31.90;;;9.30;99.90;;;;;;6110258;23;20200;-87
2022/03/16 03:28:32;;;;;;;39.40;32.03;;;9.30;99.90;;;;;;6110631;23;20194;-86
2022/03/16 03:30:58;;;;;;;40.40;33.70;;;9.30;99.90;;;;;;6102972;23;20293;-87
2022/03/16 03:33:27;;;;;;;39.50;32.80;;;9.30;99.90;;;;;;6098866;23;20548;-87
2022/03/16 03:35:54;;;;;;;39.75;32.80;;;9.40;99.90;;;;;;6112744;23;20626;-86
2022/03/16 03:38:23;;;;;;;36.22;30.83;;;9.40;99.90;;;;;;6106157;23;20227;-87
2022/03/16 03:40:50;;;;;;;38.13;32.30;;;9.40;99.90;;;;;;6111147;23;20718;-87
2022/03/16 03:43:17;;;;;;;38.10;32.45;;;9.40;99.90;;;;;;6106670;23;20194;-87
2022/03/16 03:45:44;;;;;;;37.83;32.10;;;9.40;99.90;;;;;;6111368;23;20196;-86
2022/03/16 03:48:10;;;;;;;38.15;32.33;;;9.40;99.90;;;;;;6106232;23;20286;-87
2022/03/16 03:50:39;;;;;;;38.00;30.90;;;9.40;99.90;;;;;;6114718;23;20221;-86
2022/03/16 03:53:05;;;;;;;37.10;30.95;;;9.40;99.90;;;;;;6100321;23;20186;-87
2022/03/16 03:55:32;;;;;;;36.13;30.88;;;9.40;99.90;;;;;;6113427;23;20265;-87
2022/03/16 03:57:59;;;;;;;37.83;30.98;;;9.50;99.90;;;;;;6101646;23;20210;-88
2022/03/16 04:00:27;;;;;;;36.50;32.35;;;9.50;99.90;;;;;;6099442;23;20187;-86
2022/03/16 04:02:54;;;;;;;39.90;32.65;;;9.50;99.90;;;;;;6101343;23;20275;-87
2022/03/16 04:05:21;;;;;;;38.50;31.25;;;9.50;99.90;;;;;;6103864;23;20244;-87
2022/03/16 04:07:50;;;;;;;38.47;32.78;;;9.50;99.90;;;;;;6108107;23;20217;-85
2022/03/16 04:10:18;;;;;;;37.88;32.40;;;9.50;99.90;;;;;;6110981;23;20689;-86
2022/03/16 04:12:45;;;;;;;37.05;31.08;;;9.50;99.90;;;;;;6111348;23;20191;-86
2022/03/16 04:15:20;;;;;;;38.25;32.03;;;9.50;99.90;;;;;;6103937;23;20226;-87
2022/03/16 04:17:47;;;;;;;38.20;31.20;;;9.50;99.90;;;;;;6111705;23;20208;-86
2022/03/16 04:20:14;;;;;;;39.00;33.00;;;9.50;99.90;;;;;;6108799;23;20532;-86
2022/03/16 04:22:41;;;;;;;40.38;33.35;;;9.50;99.90;;;;;;6112800;23;20270;-87
2022/03/16 04:25:10;;;;;;;38.65;31.67;;;9.50;99.90;;;;;;6101283;23;20194;-87
2022/03/16 04:27:37;;;;;;;39.65;32.92;;;9.50;99.90;;;;;;6117776;23;20208;-87
2022/03/16 04:30:05;;;;;;;38.95;32.17;;;9.50;99.90;;;;;;6109102;23;20215;-87
2022/03/16 04:32:32;;;;;;;37.25;31.02;;;9.50;99.90;;;;;;6108995;23;20195;-87
2022/03/16 04:34:59;;;;;;;38.28;32.80;;;9.50;99.90;;;;;;6102027;23;20237;-87
2022/03/16 04:37:26;;;;;;;40.58;33.80;;;9.50;99.90;;;;;;6107995;23;20208;-88
2022/03/16 04:39:53;;;;;;;41.13;32.80;;;9.60;99.90;;;;;;6104754;23;20666;-87
2022/03/16 04:42:21;;;;;;;38.83;32.20;;;9.50;99.90;;;;;;6106639;23;20199;-87
2022/03/16 04:44:48;;;;;;;43.10;32.75;;;9.40;99.90;;;;;;6108923;23;20198;-88
2022/03/16 04:47:15;;;;;;;39.03;32.22;;;9.40;99.90;;;;;;6115196;23;20217;-86
2022/03/16 04:49:41;;;;;;;42.30;35.20;;;9.40;99.90;;;;;;6108702;23;20210;-87
2022/03/16 04:52:10;;;;;;;40.10;32.65;;;9.40;99.90;;;;;;6097990;23;20660;-87
2022/03/16 04:54:37;;;;;;;41.47;34.95;;;9.40;99.90;;;;;;6102135;23;20196;-90
2022/03/16 04:57:05;;;;;;;42.10;32.65;;;9.40;99.90;;;;;;6112716;23;20538;-87
2022/03/16 04:59:33;;;;;;;43.70;34.25;;;9.40;99.90;;;;;;6101053;23;20195;-89
2022/03/16 05:02:01;;;;;;;40.95;33.67;;;9.40;99.90;;;;;;6118699;23;20225;-88
2022/03/16 05:04:28;;;;;;;40.80;34.83;;;9.40;99.90;;;;;;6108363;23;20197;-90
2022/03/16 05:06:55;;;;;;;44.92;33.60;;;9.40;99.90;;;;;;6102183;23;20215;-83
2022/03/16 05:09:22;;;;;;;43.47;33.70;;;9.40;99.90;;;;;;6113256;23;20642;-89
2022/03/16 05:11:49;;;;;;;41.40;34.05;;;9.40;99.90;;;;;;6102088;23;20223;-87
2022/03/16 05:14:17;;;;;;;42.90;32.70;;;9.40;99.90;;;;;;6110595;23;20286;-84
2022/03/16 05:16:46;;;;;;;41.08;34.25;;;9.40;99.90;;;;;;6105532;23;20298;-88
2022/03/16 05:19:12;;;;;;;41.60;33.10;;;9.40;99.90;;;;;;6102564;23;20581;-88
2022/03/16 05:21:39;;;;;;;42.90;34.30;;;9.30;99.90;;;;;;6101193;23;20198;-86
2022/03/16 05:24:07;;;;;;;44.80;34.25;;;9.40;99.90;;;;;;6104842;23;20549;-88
2022/03/16 05:26:34;;;;;;;39.75;33.40;;;9.30;99.90;;;;;;6117717;23;20210;-85
2022/03/16 05:29:01;;;;;;;38.65;33.80;;;9.30;99.90;;;;;;6103754;23;20281;-87
2022/03/16 05:31:28;;;;;;;37.70;33.00;;;9.20;99.90;;;;;;6115593;23;20222;-87
2022/03/16 05:33:57;;;;;;;39.95;32.97;;;9.10;99.90;;;;;;6106879;23;20195;-87
2022/03/16 05:36:24;;;;;;;37.92;32.10;;;9.00;99.90;;;;;;6109992;23;20715;-87
2022/03/16 05:38:51;;;;;;;39.53;30.65;;;8.90;99.90;;;;;;6105147;23;20202;-90
2022/03/16 05:41:19;;;;;;;35.47;29.30;;;8.80;99.90;;;;;;6094369;23;20548;-86
2022/03/16 05:43:46;;;;;;;25.58;22.80;;;8.70;99.90;;;;;;6095729;23;20177;-69
2022/03/16 05:46:13;;;;;;;28.13;25.13;;;8.80;99.90;;;;;;6105391;23;20252;-70
2022/03/16 05:48:40;;;;;;;30.17;25.70;;;8.70;99.90;;;;;;6096962;23;20191;-78
2022/03/16 05:51:08;;;;;;;30.88;25.73;;;8.70;99.90;;;;;;6101666;23;20228;-74
2022/03/16 05:53:36;;;;;;;31.58;26.75;;;8.50;99.90;;;;;;6107496;23;20189;-75
2022/03/16 05:56:03;;;;;;;31.05;27.77;;;8.40;99.90;;;;;;6109493;23;20206;-75
2022/03/16 05:58:30;;;;;;;32.03;26.75;;;8.40;99.90;;;;;;6107954;23;20274;-75
2022/03/16 06:00:57;;;;;;;32.20;27.30;;;8.30;99.90;;;;;;6109615;23;20192;-75
2022/03/16 06:03:24;;;;;;;34.42;29.52;;;8.20;99.90;;;;;;6109215;23;20176;-75
2022/03/16 06:05:51;;;;;;;31.80;27.25;;;8.20;99.90;;;;;;6102665;23;20220;-75
2022/03/16 06:08:19;;;;;;;31.30;27.38;;;8.20;99.90;;;;;;6107490;23;20260;-75
2022/03/16 06:10:46;;;;;;;31.52;27.15;;;8.10;99.90;;;;;;6104349;23;20216;-75
2022/03/16 06:13:13;;;;;;;33.45;28.38;;;8.10;99.90;;;;;;6104089;23;20925;-75
2022/03/16 06:15:42;;;;;;;33.42;27.83;;;8.00;99.90;;;;;;6104611;23;20191;-78
2022/03/16 06:18:09;;;;;;;35.45;29.38;;;7.90;99.90;;;;;;6102075;23;20180;-75
2022/03/16 06:20:37;;;;;;;34.80;30.90;;;7.80;99.90;;;;;;6110728;23;20188;-76
2022/03/16 06:23:05;;;;;;;37.72;29.38;;;7.70;99.90;;;;;;6106368;23;20374;-76
2022/03/16 06:25:34;;;;;;;36.92;29.70;;;7.70;99.90;;;;;;6101560;23;20261;-75
2022/03/16 06:28:01;;;;;;;35.85;28.50;;;7.60;99.90;;;;;;6102512;23;20243;-75
2022/03/16 06:30:29;;;;;;;35.45;28.73;;;7.60;99.90;;;;;;6099286;23;20750;-75
2022/03/16 06:32:56;;;;;;;40.92;32.22;;;7.60;99.90;;;;;;6103936;23;20180;-75
2022/03/16 06:35:23;;;;;;;38.65;30.63;;;7.60;99.90;;;;;;6103567;23;20656;-76
2022/03/16 06:37:50;;;;;;;39.03;31.00;;;7.60;99.90;;;;;;6110558;23;20264;-75
2022/03/16 06:40:17;;;;;;;36.60;29.10;;;7.40;99.90;;;;;;6104743;23;20185;-75
2022/03/16 06:42:50;;;;;;;38.80;32.35;;;7.50;99.90;;;;;;6100235;23;21030;-75
2022/03/16 06:45:18;;;;;;;36.63;28.85;;;7.40;99.90;;;;;;6099489;23;20176;-75
2022/03/16 06:47:45;;;;;;;36.10;28.75;;;7.40;99.90;;;;;;6096396;23;20205;-75
2022/03/16 06:50:12;;;;;;;34.85;28.33;;;7.40;99.90;;;;;;6101707;23;20219;-75
2022/03/16 06:52:40;;;;;;;35.10;28.33;;;7.40;99.90;;;;;;6111667;23;20308;-76
2022/03/16 06:55:08;;;;;;;41.55;31.17;;;7.40;99.90;;;;;;6111118;23;20291;-76
2022/03/16 06:57:35;;;;;;;35.55;29.98;;;7.40;99.90;;;;;;6100595;23;20276;-75
2022/03/16 07:00:06;;;;;;;35.92;29.10;;;7.30;99.90;;;;;;6113690;23;20203;-76
2022/03/16 07:02:47;;;;;;;35.95;29.30;;;7.30;99.90;;;;;;6109891;23;20183;-76
2022/03/16 07:05:14;;;;;;;32.70;27.98;;;7.30;99.90;;;;;;6109300;23;20179;-76
2022/03/16 07:07:41;;;;;;;34.72;28.77;;;7.30;99.90;;;;;;6110277;23;20245;-76
2022/03/16 07:10:09;;;;;;;36.05;29.85;;;7.40;99.90;;;;;;6107555;23;20189;-76
2022/03/16 07:12:36;;;;;;;35.25;29.92;;;7.40;99.90;;;;;;6099179;23;20222;-76
2022/03/16 07:15:06;;;;;;;35.50;28.42;;;7.50;99.90;;;;;;6110790;23;20197;-76
2022/03/16 07:17:33;;;;;;;38.38;31.10;;;7.60;99.90;;;;;;6100319;23;20203;-76
2022/03/16 07:20:00;;;;;;;35.03;30.10;;;7.60;99.90;;;;;;6110921;23;20187;-76
2022/03/16 07:22:27;;;;;;;33.00;28.50;;;7.60;99.90;;;;;;6102142;23;20814;-76
2022/03/16 07:24:54;;;;;;;34.33;28.30;;;7.60;99.90;;;;;;6110116;23;20187;-76
2022/03/16 07:27:21;;;;;;;34.72;28.02;;;7.60;99.90;;;;;;6113354;23;20621;-76
2022/03/16 07:29:48;;;;;;;32.60;27.48;;;7.60;99.90;;;;;;6112272;23;20576;-76
2022/03/16 07:32:16;;;;;;;36.08;28.08;;;7.70;99.90;;;;;;6090873;23;20216;-76
2022/03/16 07:34:44;;;;;;;33.83;29.05;;;7.80;99.90;;;;;;6100784;23;20192;-76
2022/03/16 07:37:11;;;;;;;31.90;27.42;;;7.80;99.90;;;;;;6105935;23;20682;-75
2022/03/16 07:39:37;;;;;;;33.05;28.67;;;7.80;99.90;;;;;;6105391;23;20182;-76
2022/03/16 07:42:05;;;;;;;32.78;26.95;;;7.90;99.90;;;;;;6100699;23;20188;-76
2022/03/16 07:44:32;;;;;;;33.78;28.55;;;7.90;99.90;;;;;;6102988;23;20190;-75
2022/03/16 07:46:59;;;;;;;32.30;28.35;;;7.80;99.90;;;;;;6110263;23;20239;-76
2022/03/16 07:49:28;;;;;;;33.85;27.48;;;7.80;99.90;;;;;;6105729;23;20180;-76
2022/03/16 07:51:55;;;;;;;34.90;27.38;;;7.80;99.90;;;;;;6107077;23;20207;-76
2022/03/16 07:54:22;;;;;;;33.22;27.95;;;7.70;99.90;;;;;;6098762;23;20215;-76
2022/03/16 07:56:49;;;;;;;31.58;27.90;;;7.70;99.90;;;;;;6113124;23;20235;-76
2022/03/16 07:59:16;;;;;;;34.28;29.58;;;7.70;99.90;;;;;;6103679;23;20637;-75
2022/03/16 08:01:44;;;;;;;33.00;26.83;;;7.80;99.90;;;;;;6103838;23;20264;-76
2022/03/16 08:04:11;;;;;;;32.33;27.60;;;7.80;99.90;;;;;;6094539;23;20196;-76
2022/03/16 08:06:40;;;;;;;33.78;27.50;;;7.90;99.90;;;;;;6108428;23;20575;-76
2022/03/16 08:09:07;;;;;;;33.08;26.00;;;7.90;99.90;;;;;;6092445;23;20190;-76
2022/03/16 08:11:34;;;;;;;34.28;27.45;;;8.00;99.90;;;;;;6103293;23;20218;-76
2022/03/16 08:14:00;;;;;;;32.25;27.40;;;7.90;99.90;;;;;;6096321;23;20307;-76
2022/03/16 08:16:27;;;;;;;30.02;24.65;;;7.90;99.90;;;;;;6093024;23;20289;-76
2022/03/16 08:18:54;;;;;;;31.33;25.35;;;8.00;99.90;;;;;;6101730;23;20239;-76
2022/03/16 08:21:21;;;;;;;32.72;27.33;;;8.00;99.90;;;;;;6100040;23;20185;-76
2022/03/16 08:23:49;;;;;;;32.03;26.38;;;8.00;99.90;;;;;;6097248;23;20640;-76
2022/03/16 08:26:17;;;;;;;31.58;26.58;;;8.10;99.90;;;;;;6102831;23;20204;-76
2022/03/16 08:28:44;;;;;;;29.33;26.05;;;8.10;99.90;;;;;;6095867;23;20634;-76
2022/03/16 08:31:11;;;;;;;29.90;26.10;;;8.30;99.90;;;;;;6099775;23;20220;-76
2022/03/16 08:33:38;;;;;;;33.20;26.83;;;8.40;99.90;;;;;;6103270;23;20265;-75
2022/03/16 08:36:07;;;;;;;29.40;24.52;;;8.30;99.90;;;;;;6094465;23;20205;-76
2022/03/16 08:38:36;;;;;;;32.28;26.27;;;8.30;99.90;;;;;;6104483;23;20185;-76
2022/03/16 08:41:06;;;;;;;31.83;25.85;;;8.20;99.90;;;;;;6099332;23;20319;-75
2022/03/16 08:43:34;;;;;;;29.90;24.38;;;8.20;99.90;;;;;;6098401;23;20209;-76
2022/03/16 08:46:00;;;;;;;30.63;25.92;;;8.10;99.90;;;;;;6096664;23;20216;-75
2022/03/16 08:48:29;;;;;;;30.00;24.88;;;8.10;99.90;;;;;;6096103;23;20273;-76
2022/03/16 08:50:56;;;;;;;29.48;24.85;;;8.10;99.90;;;;;;6102046;23;20677;-76
2022/03/16 08:53:25;;;;;;;29.00;24.92;;;8.10;99.90;;;;;;6106045;23;20189;-75
2022/03/16 08:55:52;;;;;;;26.98;23.23;;;8.10;99.90;;;;;;6096248;23;20312;-76
2022/03/16 08:58:20;;;;;;;28.25;24.17;;;8.10;99.90;;;;;;6095096;23;20194;-76
2022/03/16 09:00:47;;;;;;;28.40;24.13;;;8.20;99.90;;;;;;6107585;23;20372;-75
2022/03/16 09:03:14;;;;;;;27.35;23.60;;;8.20;99.90;;;;;;6106857;23;20188;-75
2022/03/16 09:05:41;;;;;;;30.92;24.77;;;8.30;99.90;;;;;;6105648;23;20200;-76
2022/03/16 09:08:09;;;;;;;26.30;22.77;;;8.30;99.90;;;;;;6110679;23;20202;-76
2022/03/16 09:10:36;;;;;;;26.48;22.35;;;8.50;99.90;;;;;;6105418;23;20270;-76
2022/03/16 09:13:04;;;;;;;26.52;23.33;;;8.60;99.90;;;;;;6111419;23;20212;-76
2022/03/16 09:15:32;;;;;;;26.63;23.55;;;8.60;99.90;;;;;;6109719;23;20206;-76
2022/03/16 09:17:59;;;;;;;24.52;21.92;;;8.60;99.90;;;;;;6105655;23;20643;-76
2022/03/16 09:20:27;;;;;;;24.65;22.00;;;8.60;99.90;;;;;;6105230;23;20248;-76
2022/03/16 09:22:54;;;;;;;25.50;22.52;;;8.70;99.90;;;;;;6100728;23;20182;-76
2022/03/16 09:25:24;;;;;;;22.77;20.33;;;8.80;99.90;;;;;;6105514;23;20262;-76
2022/03/16 09:27:51;;;;;;;23.80;21.27;;;8.90;99.90;;;;;;6109383;23;20185;-76
2022/03/16 09:30:19;;;;;;;25.13;22.48;;;8.90;99.90;;;;;;6103566;23;20217;-76
2022/03/16 09:32:47;;;;;;;22.80;20.33;;;9.00;99.90;;;;;;6110784;23;20776;-76
2022/03/16 09:35:14;;;;;;;24.17;21.55;;;9.10;99.90;;;;;;6105741;23;20210;-76
2022/03/16 09:37:41;;;;;;;24.17;21.20;;;9.20;99.90;;;;;;6102929;23;20183;-76
2022/03/16 09:40:10;;;;;;;23.85;20.67;;;9.30;99.90;;;;;;6099742;23;20194;-76
2022/03/16 09:42:39;;;;;;;25.05;22.45;;;9.40;99.90;;;;;;6099263;23;20187;-76
2022/03/16 09:45:11;;;;;;;24.75;22.05;;;9.50;99.90;;;;;;6102147;23;20192;-76
2022/03/16 09:47:38;;;;;;;23.50;21.00;;;9.50;99.90;;;;;;6106232;23;20189;-76
2022/03/16 09:50:09;;;;;;;25.17;22.58;;;9.50;99.90;;;;;;6109141;23;20226;-76
2022/03/16 09:52:36;;;;;;;23.95;21.45;;;9.50;99.90;;;;;;6103338;23;20212;-76
2022/03/16 09:55:06;;;;;;;23.98;21.25;;;9.50;99.90;;;;;;6107253;23;20639;-76
2022/03/16 09:57:33;;;;;;;23.52;20.73;;;9.50;99.90;;;;;;6103248;23;20223;-76
2022/03/16 10:00:01;;;;;;;24.85;21.10;;;9.70;99.90;;;;;;6103620;23;20185;-75
2022/03/16 10:02:28;;;;;;;26.02;22.25;;;9.70;99.90;;;;;;6104600;23;20707;-76
2022/03/16 10:04:55;;;;;;;24.38;21.73;;;9.50;99.90;;;;;;6108147;23;20189;-76
2022/03/16 10:07:29;;;;;;;24.77;22.17;;;9.50;99.90;;;;;;6116189;23;20521;-76
2022/03/16 10:15:26;;;;;;;25.10;21.38;;;9.70;99.90;;;;;;6109267;23;20241;-76
2022/03/16 10:18:02;;;;;;;24.20;20.55;;;9.80;99.90;;;;;;6115119;23;20211;-76
2022/03/16 10:20:31;;;;;;;21.35;19.13;;;10.00;99.90;;;;;;6105934;23;20215;-75
2022/03/16 10:23:05;;;;;;;22.40;20.10;;;10.20;99.90;;;;;;6108389;23;20195;-76
2022/03/16 10:25:34;;;;;;;21.45;19.25;;;10.10;99.90;;;;;;6106800;23;20214;-76
2022/03/16 10:28:13;;;;;;;23.50;21.05;;;10.20;99.90;;;;;;6102284;23;20248;-76
2022/03/16 10:30:56;;;;;;;23.10;20.70;;;10.30;99.90;;;;;;6105644;23;20542;-76
2022/03/16 10:33:25;;;;;;;22.85;20.55;;;10.60;99.90;;;;;;6104007;23;20684;-76
2022/03/16 10:35:56;;;;;;;22.70;20.30;;;10.80;99.90;;;;;;6109598;23;20692;-76
2022/03/16 10:38:26;;;;;;;22.55;20.15;;;11.00;99.90;;;;;;6109120;23;20179;-76
2022/03/16 10:40:56;;;;;;;22.55;20.10;;;11.00;99.90;;;;;;6106279;23;20268;-76
2022/03/16 10:49:00;;;;;;;20.83;18.83;;;12.00;99.90;;;;;;6105659;23;21855;-76
2022/03/16 10:51:28;;;;;;;19.60;17.70;;;12.20;99.90;;;;;;6111219;23;20279;-76
2022/03/16 10:53:58;;;;;;;18.27;16.65;;;12.60;99.90;;;;;;6104200;23;20215;-76
2022/03/16 10:56:27;;;;;;;19.02;17.23;;;12.80;99.90;;;;;;6108789;23;20690;-76
2022/03/16 10:58:56;;;;;;;18.10;16.40;;;13.10;99.90;;;;;;6112933;23;20187;-76
2022/03/16 11:01:25;;;;;;;18.60;16.90;;;13.40;99.90;;;;;;6098058;23;20457;-76
2022/03/16 11:03:55;;;;;;;19.83;17.98;;;13.50;99.90;;;;;;6100772;23;20192;-76
2022/03/16 11:06:22;;;;;;;18.67;16.93;;;13.80;99.90;;;;;;6098955;23;20287;-76
2022/03/16 11:08:51;;;;;;;18.67;16.87;;;14.20;99.90;;;;;;6106398;23;20476;-76
2022/03/16 11:14:06;;;;;;;18.77;17.07;;;14.40;99.90;;;;;;6103142;23;20444;-76
2022/03/16 11:16:34;;;;;;;18.07;16.30;;;14.30;99.90;;;;;;6102465;23;20489;-76
2022/03/16 11:19:04;;;;;;;19.53;17.67;;;14.20;99.90;;;;;;6098816;23;20453;-76
2022/03/16 11:21:44;;;;;;;17.40;15.80;;;14.30;99.90;;;;;;6099753;23;20435;-76
2022/03/16 11:24:18;;;;;;;18.80;17.10;;;14.70;99.90;;;;;;6113291;23;20450;-76
2022/03/16 11:27:09;;;;;;;17.73;16.13;;;14.90;99.90;;;;;;6102685;23;20469;-76
2022/03/16 11:29:46;;;;;;;17.57;15.97;;;14.90;99.90;;;;;;6099140;23;20451;-76
2022/03/16 11:32:15;;;;;;;18.33;16.73;;;14.70;99.90;;;;;;6105701;23;20571;-76
2022/03/16 11:34:50;;;;;;;18.37;16.67;;;14.40;99.90;;;;;;6104860;23;20442;-77
2022/03/16 11:37:19;;;;;;;17.60;15.97;;;14.40;99.90;;;;;;6093524;23;20513;-82
2022/03/16 11:39:47;;;;;;;17.30;15.70;;;14.40;99.90;;;;;;6106049;23;21450;-83
2022/03/16 11:42:20;;;;;;;18.00;16.23;;;14.50;99.90;;;;;;6098673;23;20859;-76
2022/03/16 11:44:47;;;;;;;17.83;16.23;;;14.60;99.90;;;;;;6107585;23;20454;-76
2022/03/16 11:47:34;;;;;;;17.77;16.17;;;14.70;99.90;;;;;;6105812;23;20554;-76
2022/03/16 11:50:11;;;;;;;17.60;15.90;;;15.00;99.90;;;;;;6104033;23;20450;-76
2022/03/16 11:53:00;;;;;;;18.83;17.17;;;15.00;99.90;;;;;;6102551;23;20458;-78
2022/03/16 11:55:42;;;;;;;18.20;16.40;;;15.00;99.90;;;;;;6103435;23;20476;-79
2022/03/16 11:58:28;;;;;;;16.00;14.60;;;15.10;99.90;;;;;;6106315;23;20444;-79
2022/03/16 12:01:27;;;;;;;19.17;17.37;;;14.90;99.90;;;;;;6104052;23;20504;-80
2022/03/16 12:04:12;;;;;;;17.60;16.00;;;14.60;99.90;;;;;;6105225;23;20951;-80
2022/03/16 12:06:51;;;;;;;18.83;17.03;;;14.50;99.90;;;;;;6103804;23;21204;-81
2022/03/16 12:09:20;;;;;;;17.80;16.10;;;14.60;99.90;;;;;;6100304;23;20510;-80
2022/03/16 12:15:05;;;;;;;18.57;16.70;;;14.20;99.90;;;;;;6100088;23;20468;-81
2022/03/16 12:17:32;;;;;;;18.17;16.47;;;14.30;99.90;;;;;;6097870;23;20918;-80
2022/03/16 12:20:09;;;;;;;17.37;15.60;;;14.40;99.90;;;;;;6112137;23;20786;-80
2022/03/16 12:22:38;;;;;;;17.70;16.10;;;14.60;99.90;;;;;;6100108;23;20539;-80
2022/03/16 12:25:39;;;;;;;16.57;15.07;;;14.50;99.90;;;;;;6102353;23;20455;-81
2022/03/16 12:30:56;;;;;;;16.80;15.20;;;14.40;99.90;;;;;;6019534;23;20443;-80
2022/03/16 12:33:26;;;;;;;16.43;14.93;;;14.60;99.90;;;;;;6069393;23;20842;-81
2022/03/16 12:35:55;;;;;;;18.00;16.30;;;14.60;99.90;;;;;;6110700;23;20535;-80
2022/03/16 12:38:23;;;;;;;18.10;16.40;;;14.50;99.90;;;;;;6118294;23;20443;-81
2022/03/16 12:43:37;;;;;;;16.20;14.73;;;14.50;99.90;;;;;;6102983;23;20648;-80
2022/03/16 12:46:17;;;;;;;17.03;15.53;;;14.30;99.90;;;;;;6102280;23;21026;-80
2022/03/16 12:48:48;;;;;;;16.43;14.90;;;14.10;99.90;;;;;;6107028;23;20435;-80
2022/03/16 12:51:32;;;;;;;17.57;15.83;;;14.00;99.90;;;;;;6102515;23;20434;-80
2022/03/16 12:53:59;;;;;;;16.17;14.73;;;13.90;99.90;;;;;;6095201;23;20499;-80
2022/03/16 12:56:26;;;;;;;17.20;15.80;;;13.80;99.90;;;;;;6105911;23;20685;-79
2022/03/16 12:58:54;;;;;;;17.50;15.90;;;13.70;99.90;;;;;;6109791;23;20520;-81
2022/03/16 13:01:24;;;;;;;17.10;15.45;;;13.70;99.90;;;;;;6095597;23;20496;-81
2022/03/16 13:04:00;;;;;;;17.80;16.23;;;13.60;99.90;;;;;;6113642;23;20641;-76
2022/03/16 13:06:31;;;;;;;17.93;16.33;;;13.50;99.90;;;;;;6101467;23;20465;-76